Huvudsida
METAR-TAF:

METAR-TAF

Flygplatser :

Netaji Subhash Chandra Bose International Airport

Calcutta, Indien

latitud: 22-39N, longitud: 088-27E, höjd: 4 m

Aktuellt väderrapport

Denna rapport gjordes för 23 minuter sedan, klockan 15:00 UTC
Vind 3 kt från väst/nordväst
Temperatur 29°C
Fuktighet 89%
Tryck 1007 hPa
Sikt: 3500 m
Spridda moln på en höjd av 1800 ft
Spridda moln på en höjd av 10000 ft
torrdis

METAR: VECC 261500Z 30003KT 3500 HZ SCT018 SCT100 29/27 Q1007 NOSIG

Tid: 20:53 (15:23 UTC)

Väderprognos

Denna rapport gjordes för 1 timme och 23 minuter sedan, klockan 14:00 UTC
Prognos gäller från 26 kl. 15 UTC till 26 kl. 24 UTC
Vind 5 kt från sydväst
Sikt: 3200 m
Spridda moln på en höjd av 1800 ft
Brutna moln på en höjd av 10000 ft
torrdis
Blir
från 26 kl. 20 UTC till 26 kl. 22 UTC
Sikt: 2600 m
torrdis

TAF: VECC 261400Z 2615/2624 23005KT 3200 HZ SCT018 BKN100 BECMG 2620/2622 2600 HZ

Aktuella väderrapporter och prognoser från 4000 flygplatser (METAR- och TAF-rapporter).

De tillgängliga stationerna syns som gula och röda prickar på kartan.

För musen över prickarna för att se namnen på stationerna.

Klicka sedan för att få väderrapporter och prognoser.

För att ändra kartan: Klicka på de gröna knapparna med ett svart kors på för att zooma in; den gröna knappen med ett streck på för att zooma ut; eller på de gröna pilarna för angränsande kartor.


METAR-TAF: